WetterOnline ( https://www.wetteronline.de )

Wetter aktuell Denkendorf

Aktuelles Wetter: Gelbelsee (539m)

6-stündlich | Neueste Meldungen
Ortszeit Temperatur Wetter
Do, 25.04. 20:00 20.9° C leicht bewölkt
Do, 25.04. 14:00 21.3° C wolkig
Do, 25.04. 8:00 10.2° C wolkenlos
Do, 25.04. 2:00 8.6° C wolkenlos
Mi, 24.04. 20:00 20.6° C bewölkt
Mi, 24.04. 14:00 22.9° C fast wolkenlos
Mi, 24.04. 8:00 11.1° C wolkenlos
Mi, 24.04. 2:00 10.0° C bedeckt
Ortszeit Temperatur Wetter
Fr, 26.04. 1:30 15.8° C fast wolkenlos
Fr, 26.04. 1:20 15.8° C fast wolkenlos
Fr, 26.04. 1:10 16.0° C leicht bewölkt
Fr, 26.04. 1:00 15.4° C leicht bewölkt
Fr, 26.04. 0:50 15.4° C leicht bewölkt
Fr, 26.04. 0:40 16.9° C fast wolkenlos
Fr, 26.04. 0:30 17.1° C wolkenlos
Fr, 26.04. 0:00 16.3° C wolkenlos
Do, 25.04. 23:30 17.1° C leicht bewölkt
Do, 25.04. 23:00 17.6° C bewölkt
Do, 25.04. 22:30 18.0° C wolkig
Ortszeit Relative Feuchte Sichtweite
Do, 25.04. 20:00 25% 60 km
Do, 25.04. 14:00 35% 60 km
Do, 25.04. 8:00 71% 60 km
Do, 25.04. 2:00 73% 65 km
Mi, 24.04. 20:00 30% >70 km
Mi, 24.04. 14:00 30% 50 km
Mi, 24.04. 8:00 71% >70 km
Mi, 24.04. 2:00 71% 65 km
Ortszeit Relative Feuchte Sichtweite
Fr, 26.04. 1:30 42% 65 km
Fr, 26.04. 1:20 42% -
Fr, 26.04. 1:10 41% -
Fr, 26.04. 1:00 42% >70 km
Fr, 26.04. 0:50 42% -
Fr, 26.04. 0:40 38% -
Fr, 26.04. 0:30 38% 65 km
Fr, 26.04. 0:00 39% 65 km
Do, 25.04. 23:30 37% >70 km
Do, 25.04. 23:00 36% 65 km
Do, 25.04. 22:30 35% >70 km
Ortszeit Niederschlagsmenge Niederschlagsart
Do, 25.04. 20:00 0.0 l/m2 in 12 Std. -
Do, 25.04. 14:00 0.0 l/m2 in 6 Std. -
Do, 25.04. 8:00 0.0 l/m2 in 12 Std. -
Do, 25.04. 2:00 0.0 l/m2 in 6 Std. -
Mi, 24.04. 20:00 0.0 l/m2 in 12 Std. -
Mi, 24.04. 14:00 0.0 l/m2 in 6 Std. -
Mi, 24.04. 8:00 0.0 l/m2 in 12 Std. -
Mi, 24.04. 2:00 0.0 l/m2 in 6 Std. -
Ortszeit Niederschlagsmenge Niederschlagsart
Fr, 26.04. 1:30 0.0 l/m2 in 1 Std. -
Fr, 26.04. 1:20 keine Meldung -
Fr, 26.04. 1:10 keine Meldung -
Fr, 26.04. 1:00 0.0 l/m2 in 1 Std. -
Fr, 26.04. 0:50 keine Meldung -
Fr, 26.04. 0:40 keine Meldung -
Fr, 26.04. 0:30 0.0 l/m2 in 1 Std. -
Fr, 26.04. 0:00 0.0 l/m2 in 1 Std. -
Do, 25.04. 23:30 0.0 l/m2 in 1 Std. -
Do, 25.04. 23:00 0.0 l/m2 in 1 Std. -
Do, 25.04. 22:30 0.0 l/m2 in 1 Std. -
Ortszeit Stärke Spitze Richtung
km/h Bft. km/h Grad Sektor
Do, 25.04. 20:00 11 2 36 160° S
Do, 25.04. 14:00 13 3 31 110° O
Do, 25.04. 8:00 6 1 9 120° SO
Do, 25.04. 2:00 4 1 61 100° O
Mi, 24.04. 20:00 7 2 43 200° S
Mi, 24.04. 14:00 9 2 28 110° O
Mi, 24.04. 8:00 11 2 18 110° O
Mi, 24.04. 2:00 11 2 43 100° O
Ortszeit Stärke Spitze Richtung
km/h Bft. km/h Grad Sektor
Fr, 26.04. 1:30 7 2 13 270° W
Fr, 26.04. 1:20 7 2 - 270° W
Fr, 26.04. 1:10 7 2 - 270° W
Fr, 26.04. 1:00 7 2 11 250° W
Fr, 26.04. 0:50 7 2 - 250° W
Fr, 26.04. 0:40 6 1 - 230° SW
Fr, 26.04. 0:30 7 2 11 220° SW
Fr, 26.04. 0:00 4 1 11 190° S
Do, 25.04. 23:30 4 1 7 190° S
Do, 25.04. 23:00 6 1 11 210° SW
Do, 25.04. 22:30 6 1 11 210° SW
Ortszeit Untergrenze Bedeckung Gattung
total tief tief mittel hoch
Do, 25.04. 20:00 7500 m 4/8 0/8 - - -
Do, 25.04. 14:00 6900 m 7/8 6/8 - - -
Do, 25.04. 8:00 - 0/8 0/8 - - -
Do, 25.04. 2:00 - 0/8 0/8 - - -
Mi, 24.04. 20:00 6900 m 7/8 7/8 - - -
Mi, 24.04. 14:00 9000 m 1/8 0/8 - - -
Mi, 24.04. 8:00 - 0/8 0/8 - - -
Mi, 24.04. 2:00 5400 m 8/8 8/8 - - -
Ortszeit Bedeckungsgrad in Achtel und Wolkenuntergrenze
Fr, 26.04. 1:30 2(7500m)
Fr, 26.04. 1:20 2(7500m)
Fr, 26.04. 1:10 3(7500m)
Fr, 26.04. 1:00 3(7500m)
Fr, 26.04. 0:50 3(7500m)
Fr, 26.04. 0:40 1(7500m)
Fr, 26.04. 0:30 keine Wolken
Fr, 26.04. 0:00 keine Wolken
Do, 25.04. 23:30 1(5700m) 4(6300m)
Do, 25.04. 23:00 6(5400m) 7(6600m)
Do, 25.04. 22:30 5(6600m) 6(7200m) 6(7800m)
Ortszeit Luftdruck NN (hPa) Tendenz (hPa in 3 Std.)
Do, 25.04. 20:00 1006 - 0,2
Do, 25.04. 14:00 1009 - 1,1
Do, 25.04. 8:00 1013 + 0,7
Do, 25.04. 2:00 1012 + 1,9
Mi, 24.04. 20:00 1003 + 1,2
Mi, 24.04. 14:00 1002 - 0,5
Mi, 24.04. 8:00 1004 + 1,2
Mi, 24.04. 2:00 1003 + 0,3
Ortszeit Luftdruck NN (hPa) Tendenz (hPa in 3 Std.)
Fr, 26.04. 1:30 1009 + 0,4
Fr, 26.04. 1:20 1009 keine Meldung
Fr, 26.04. 1:10 1008 keine Meldung
Fr, 26.04. 1:00 1009 + 0,6
Fr, 26.04. 0:50 1009 keine Meldung
Fr, 26.04. 0:40 1008 keine Meldung
Fr, 26.04. 0:30 1008 + 0,8
Fr, 26.04. 0:00 1008 + 0,8
Do, 25.04. 23:30 1008 + 0,7
Do, 25.04. 23:00 1008 + 0,7
Do, 25.04. 22:30 1008 + 0,6
Ortszeit Schneehöhe (cm)
Do, 25.04. 20:00 0
Do, 25.04. 14:00 0
Do, 25.04. 8:00 0
Do, 25.04. 2:00 0
Mi, 24.04. 20:00 0
Mi, 24.04. 14:00 0
Mi, 24.04. 8:00 0
Mi, 24.04. 2:00 0
Ortszeit Schneehöhe (cm)
Fr, 26.04. 1:30 0
Fr, 26.04. 1:20 0
Fr, 26.04. 1:10 0
Fr, 26.04. 1:00 0
Fr, 26.04. 0:50 0
Fr, 26.04. 0:40 0
Fr, 26.04. 0:30 0
Fr, 26.04. 0:00 0
Do, 25.04. 23:30 0
Do, 25.04. 23:00 0
Do, 25.04. 22:30 0
Link zu dieser Seite / Seite empfehlen

Das Wetter in ...